Time;durP1;ratioP1;P1;durP2;ratioP2;P2;SDS_P1;SDS_P2;PMS_P1;PMS_P2;Temp;Humidity;BMP_temperature;BMP_pressure;BME280_temperature;BME280_humidity;BME280_pressure;Samples;Min_cycle;Max_cycle;Signal;HPM_P1;HPM_P2
2022/07/24 00:01:30;;;;;;;0.13;0.13;;;15.30;99.90;;;;;;5130089;28;20054;-84
2022/07/24 00:03:56;;;;;;;0.40;0.25;;;15.20;99.90;;;;;;5165020;27;20035;-83
2022/07/24 00:06:23;;;;;;;0.10;0.10;;;15.30;99.90;;;;;;5130396;28;20256;-84
2022/07/24 00:08:50;;;;;;;0.13;0.10;;;15.20;99.90;;;;;;5147756;28;20039;-84
2022/07/24 00:11:17;;;;;;;0.20;0.20;;;15.20;99.90;;;;;;5130414;28;20058;-83
2022/07/24 00:13:44;;;;;;;0.15;0.15;;;15.20;99.90;;;;;;5130622;28;20040;-83
2022/07/24 00:16:11;;;;;;;0.10;0.10;;;15.20;99.90;;;;;;5130430;28;20039;-83
2022/07/24 00:18:38;;;;;;;0.17;0.17;;;15.10;99.90;;;;;;5130080;28;20126;-82
2022/07/24 00:21:05;;;;;;;0.05;0.05;;;15.10;99.90;;;;;;5164436;27;20043;-84
2022/07/24 00:23:32;;;;;;;0.20;0.20;;;15.00;99.90;;;;;;5146923;28;20036;-82
2022/07/24 00:25:59;;;;;;;0.20;0.20;;;15.00;99.90;;;;;;5143697;28;20054;-83
2022/07/24 00:28:25;;;;;;;0.17;0.17;;;15.00;99.90;;;;;;5127666;28;20043;-82
2022/07/24 00:30:52;;;;;;;0.30;0.20;;;15.00;99.90;;;;;;5145885;27;20573;-82
2022/07/24 00:33:19;;;;;;;0.10;0.10;;;15.00;99.90;;;;;;5109694;28;20082;-82
2022/07/24 00:35:46;;;;;;;0.40;0.20;;;14.90;99.90;;;;;;5127217;28;20040;-83
2022/07/24 00:38:12;;;;;;;0.13;0.10;;;14.90;99.90;;;;;;5093512;28;20489;-82
2022/07/24 00:40:39;;;;;;;0.20;0.17;;;14.90;99.90;;;;;;5109647;28;20751;-83
2022/07/24 00:43:06;;;;;;;0.00;0.00;;;14.90;99.90;;;;;;5126578;28;20052;-84
2022/07/24 00:45:33;;;;;;;0.43;0.30;;;14.90;99.90;;;;;;5160453;27;20040;-83
2022/07/24 00:48:00;;;;;;;0.28;0.25;;;14.90;99.90;;;;;;5132505;28;20028;-82
2022/07/24 00:50:26;;;;;;;0.30;0.20;;;14.90;99.90;;;;;;5130413;28;20448;-82
2022/07/24 00:52:55;;;;;;;0.10;0.10;;;14.80;99.90;;;;;;5113119;28;20529;-83
2022/07/24 00:55:22;;;;;;;0.25;0.20;;;14.80;99.90;;;;;;5129642;28;20035;-84
2022/07/24 00:57:50;;;;;;;0.32;0.32;;;14.80;99.90;;;;;;5129936;28;20039;-83
2022/07/24 01:00:19;;;;;;;0.20;0.20;;;14.80;99.90;;;;;;5164036;27;20047;-83
2022/07/24 01:02:47;;;;;;;0.15;0.15;;;14.80;99.90;;;;;;5146702;28;20044;-83
2022/07/24 01:05:14;;;;;;;0.25;0.20;;;14.80;99.90;;;;;;5130371;28;20032;-83
2022/07/24 01:07:41;;;;;;;0.45;0.30;;;14.80;99.90;;;;;;5146453;28;20707;-82
2022/07/24 01:10:08;;;;;;;0.22;0.15;;;14.80;99.90;;;;;;5147162;28;20073;-84
2022/07/24 01:12:37;;;;;;;0.22;0.15;;;14.80;99.90;;;;;;5130868;28;20484;-83
2022/07/24 01:15:07;;;;;;;0.20;0.20;;;14.80;99.90;;;;;;5134097;28;20067;-83
2022/07/24 01:17:36;;;;;;;0.20;0.20;;;14.80;99.90;;;;;;5134004;28;20182;-83
2022/07/24 01:20:04;;;;;;;0.35;0.30;;;14.70;99.90;;;;;;5133355;28;20137;-82
2022/07/24 01:22:31;;;;;;;0.10;0.10;;;14.70;99.90;;;;;;5150870;28;20040;-83
2022/07/24 01:24:58;;;;;;;0.20;0.20;;;14.60;99.90;;;;;;5151053;28;20039;-83
2022/07/24 01:27:25;;;;;;;0.40;0.40;;;14.60;99.90;;;;;;5167645;27;20040;-83
2022/07/24 01:29:52;;;;;;;0.20;0.20;;;14.60;99.90;;;;;;5150695;28;20094;-84
2022/07/24 01:32:19;;;;;;;0.10;0.10;;;14.60;99.90;;;;;;5150418;28;20032;-82
2022/07/24 01:34:46;;;;;;;0.20;0.20;;;14.50;99.90;;;;;;5150879;28;20100;-83
2022/07/24 01:37:12;;;;;;;0.20;0.10;;;14.50;99.90;;;;;;5133719;28;20082;-82
2022/07/24 01:39:39;;;;;;;0.30;0.15;;;14.50;99.90;;;;;;5133123;28;20047;-83
2022/07/24 01:42:06;;;;;;;0.43;0.28;;;14.50;99.90;;;;;;5167757;27;20099;-83
2022/07/24 01:44:33;;;;;;;0.10;0.10;;;14.50;99.90;;;;;;5167425;27;20040;-82
2022/07/24 01:46:59;;;;;;;0.30;0.20;;;14.50;99.90;;;;;;5150864;28;20499;-82
2022/07/24 01:49:26;;;;;;;0.17;0.17;;;14.50;99.90;;;;;;5150154;28;20522;-83
2022/07/24 01:51:53;;;;;;;0.50;0.28;;;14.50;99.90;;;;;;5133028;28;20074;-83
2022/07/24 01:54:20;;;;;;;0.10;0.10;;;14.50;99.90;;;;;;5165082;27;20046;-83
2022/07/24 01:56:46;;;;;;;0.32;0.20;;;14.50;99.90;;;;;;5146507;28;20089;-82
2022/07/24 01:59:13;;;;;;;0.40;0.30;;;14.50;99.90;;;;;;5113214;28;20123;-83
2022/07/24 02:01:40;;;;;;;0.40;0.20;;;14.50;99.90;;;;;;5112572;28;20449;-84
2022/07/24 02:04:07;;;;;;;0.10;0.10;;;14.50;99.90;;;;;;5143530;28;20043;-83
2022/07/24 02:06:33;;;;;;;0.10;0.10;;;14.50;99.90;;;;;;5132941;28;20092;-83
2022/07/24 02:09:00;;;;;;;0.38;0.35;;;14.50;99.90;;;;;;5133057;28;20036;-83
2022/07/24 02:11:27;;;;;;;0.20;0.20;;;14.50;99.90;;;;;;5132667;28;20488;-83
2022/07/24 02:13:55;;;;;;;0.20;0.20;;;14.50;99.90;;;;;;5132691;28;20043;-83
2022/07/24 02:16:22;;;;;;;0.13;0.10;;;14.50;99.90;;;;;;5150032;28;20046;-82
2022/07/24 02:18:48;;;;;;;0.10;0.10;;;14.50;99.90;;;;;;5132853;28;20039;-83
2022/07/24 02:21:15;;;;;;;0.20;0.20;;;14.50;99.90;;;;;;5132866;28;20039;-83
2022/07/24 02:23:42;;;;;;;0.45;0.30;;;14.40;99.90;;;;;;5131366;28;20044;-83
2022/07/24 02:26:08;;;;;;;0.10;0.10;;;14.40;99.90;;;;;;5145553;28;20028;-83
2022/07/24 02:28:35;;;;;;;0.15;0.15;;;14.40;99.90;;;;;;5128919;28;20040;-83
2022/07/24 02:31:02;;;;;;;0.20;0.20;;;14.40;99.90;;;;;;5129408;28;20051;-84
2022/07/24 02:33:28;;;;;;;0.10;0.10;;;14.40;99.90;;;;;;5095757;28;20439;-82
2022/07/24 02:35:55;;;;;;;0.10;0.10;;;14.40;99.90;;;;;;5128907;28;20190;-84
2022/07/24 02:38:22;;;;;;;0.55;0.28;;;14.40;99.90;;;;;;5129121;28;20043;-83
2022/07/24 02:40:49;;;;;;;0.20;0.20;;;14.40;99.90;;;;;;5129396;28;20055;-83
2022/07/24 02:43:15;;;;;;;0.50;0.15;;;14.40;99.90;;;;;;5115627;28;20874;-83
2022/07/24 02:45:43;;;;;;;0.00;0.00;;;14.40;99.90;;;;;;5098502;28;20501;-82
2022/07/24 02:48:09;;;;;;;0.43;0.20;;;14.40;99.90;;;;;;5132354;28;20737;-81
2022/07/24 02:50:38;;;;;;;0.28;0.20;;;14.30;99.90;;;;;;5115116;28;20035;-83
2022/07/24 02:53:06;;;;;;;0.00;0.00;;;14.40;99.90;;;;;;5116276;28;20376;-84
2022/07/24 02:55:33;;;;;;;0.10;0.10;;;14.30;99.90;;;;;;5131818;28;20454;-83
2022/07/24 02:57:59;;;;;;;0.20;0.20;;;14.30;99.90;;;;;;5148666;28;20043;-83
2022/07/24 03:00:26;;;;;;;0.82;0.30;;;14.30;99.90;;;;;;5166633;27;20044;-82
2022/07/24 03:02:53;;;;;;;0.30;0.20;;;14.30;99.90;;;;;;5148601;28;20404;-82
2022/07/24 03:05:19;;;;;;;0.20;0.20;;;14.30;99.90;;;;;;5148703;28;20036;-83
2022/07/24 03:07:49;;;;;;;0.28;0.28;;;14.30;99.90;;;;;;5165855;27;20067;-83
2022/07/24 03:10:16;;;;;;;0.30;0.20;;;14.20;99.90;;;;;;5131754;28;20068;-83
2022/07/24 03:12:43;;;;;;;0.73;0.30;;;14.20;99.90;;;;;;5148738;28;20043;-84
2022/07/24 03:15:12;;;;;;;0.38;0.20;;;14.30;99.90;;;;;;5148733;28;20099;-84
2022/07/24 03:17:39;;;;;;;0.25;0.25;;;14.20;99.90;;;;;;5148114;28;20052;-84
2022/07/24 03:20:06;;;;;;;0.45;0.30;;;14.20;99.90;;;;;;5131990;28;20046;-83
2022/07/24 03:22:33;;;;;;;0.32;0.10;;;14.30;99.90;;;;;;5148451;28;20096;-83
2022/07/24 03:25:01;;;;;;;0.30;0.30;;;14.30;99.90;;;;;;5165409;27;20031;-83
2022/07/24 03:27:27;;;;;;;0.10;0.10;;;14.30;99.90;;;;;;5131635;28;20038;-83
2022/07/24 03:29:54;;;;;;;0.20;0.20;;;14.30;99.90;;;;;;5165172;27;20039;-83
2022/07/24 03:32:20;;;;;;;0.10;0.10;;;14.40;99.90;;;;;;5157307;27;20040;-82
2022/07/24 03:34:47;;;;;;;0.22;0.20;;;14.40;99.90;;;;;;5127403;28;20155;-82
2022/07/24 03:37:14;;;;;;;0.40;0.20;;;14.40;99.90;;;;;;5127350;28;20056;-83
2022/07/24 03:39:41;;;;;;;0.52;0.20;;;14.40;99.90;;;;;;5127001;28;20110;-83
2022/07/24 03:42:08;;;;;;;0.20;0.20;;;14.40;99.90;;;;;;5129143;28;20039;-83
2022/07/24 03:44:35;;;;;;;0.20;0.20;;;14.40;99.90;;;;;;5126553;28;20043;-83
2022/07/24 03:47:02;;;;;;;0.40;0.40;;;14.40;99.90;;;;;;5140895;28;20158;-83
2022/07/24 03:49:29;;;;;;;0.20;0.20;;;14.50;99.90;;;;;;5135624;28;20442;-83
2022/07/24 03:51:55;;;;;;;0.25;0.17;;;14.50;99.90;;;;;;5129723;28;20032;-84
2022/07/24 03:54:22;;;;;;;0.30;0.25;;;14.50;99.90;;;;;;5131351;28;20542;-84
2022/07/24 03:56:50;;;;;;;0.20;0.20;;;14.60;99.90;;;;;;5102905;28;20400;-83
2022/07/24 03:59:17;;;;;;;0.20;0.10;;;14.60;99.90;;;;;;5165045;27;20089;-83
2022/07/24 04:01:44;;;;;;;0.05;0.05;;;14.60;99.90;;;;;;5112890;28;20036;-84
2022/07/24 04:04:11;;;;;;;0.20;0.10;;;14.60;99.90;;;;;;5118335;28;20038;-83
2022/07/24 04:06:37;;;;;;;0.10;0.10;;;14.70;99.90;;;;;;5120525;28;20035;-82
2022/07/24 04:09:05;;;;;;;0.43;0.20;;;14.70;99.90;;;;;;5167091;27;20039;-84
2022/07/24 04:11:32;;;;;;;0.20;0.20;;;14.80;99.90;;;;;;5129810;28;20059;-83
2022/07/24 04:13:58;;;;;;;0.13;0.13;;;14.80;99.90;;;;;;5138363;28;20036;-83
2022/07/24 04:16:26;;;;;;;0.10;0.10;;;14.80;99.90;;;;;;5113428;28;20044;-83
2022/07/24 04:18:52;;;;;;;0.30;0.20;;;14.90;99.90;;;;;;5118911;28;20042;-83
2022/07/24 04:21:19;;;;;;;0.30;0.20;;;14.90;99.90;;;;;;5147303;28;20118;-84
2022/07/24 04:23:46;;;;;;;0.38;0.28;;;15.00;99.90;;;;;;5147341;28;20039;-82
2022/07/24 04:26:13;;;;;;;0.10;0.10;;;15.00;99.90;;;;;;5129868;28;20046;-83
2022/07/24 04:28:41;;;;;;;0.20;0.10;;;15.00;99.90;;;;;;5147780;28;20044;-84
2022/07/24 04:31:08;;;;;;;0.30;0.20;;;15.10;99.90;;;;;;5146727;28;20046;-83
2022/07/24 04:33:35;;;;;;;0.38;0.20;;;15.00;99.90;;;;;;5147247;28;20039;-83
2022/07/24 04:36:03;;;;;;;0.30;0.30;;;15.10;99.90;;;;;;5130176;28;20082;-84
2022/07/24 04:38:32;;;;;;;0.10;0.10;;;15.10;99.90;;;;;;5130135;28;20396;-84
2022/07/24 04:40:59;;;;;;;0.20;0.20;;;15.10;99.90;;;;;;5146603;28;20047;-84
2022/07/24 04:43:26;;;;;;;0.85;0.47;;;15.10;99.90;;;;;;5163864;27;20135;-83
2022/07/24 04:45:53;;;;;;;0.20;0.20;;;15.10;99.90;;;;;;5146960;28;20027;-84
2022/07/24 04:48:20;;;;;;;0.17;0.17;;;15.20;99.90;;;;;;5163284;27;20503;-83
2022/07/24 04:50:46;;;;;;;0.30;0.30;;;15.20;99.90;;;;;;5129979;28;20038;-83
2022/07/24 04:53:13;;;;;;;0.63;0.50;;;15.20;99.90;;;;;;5129789;28;20502;-83
2022/07/24 04:55:40;;;;;;;0.20;0.20;;;15.20;99.90;;;;;;5129725;28;20096;-84
2022/07/24 04:58:06;;;;;;;0.50;0.50;;;15.20;99.90;;;;;;5146468;28;20046;-83
2022/07/24 05:00:33;;;;;;;0.57;0.35;;;15.30;99.90;;;;;;5146994;28;20096;-84
2022/07/24 05:03:00;;;;;;;0.17;0.17;;;15.30;99.90;;;;;;5146296;28;20454;-83
2022/07/24 05:05:27;;;;;;;0.38;0.22;;;15.40;99.90;;;;;;5146583;28;20050;-83
2022/07/24 05:07:53;;;;;;;0.45;0.20;;;15.40;99.90;;;;;;5146238;28;20404;-84
2022/07/24 05:10:20;;;;;;;0.20;0.20;;;15.50;99.90;;;;;;5129777;28;20035;-84
2022/07/24 05:12:47;;;;;;;0.43;0.22;;;15.60;99.90;;;;;;5164060;28;20122;-83
2022/07/24 05:15:13;;;;;;;0.35;0.35;;;15.70;99.90;;;;;;5146505;28;20512;-83
2022/07/24 05:17:40;;;;;;;0.25;0.20;;;15.80;99.90;;;;;;5147084;28;20721;-83
2022/07/24 05:20:07;;;;;;;0.10;0.10;;;15.90;99.90;;;;;;5146301;28;20047;-82
2022/07/24 05:22:34;;;;;;;0.50;0.22;;;15.90;99.90;;;;;;5133484;28;20109;-82
2022/07/24 05:25:01;;;;;;;0.25;0.15;;;16.00;99.90;;;;;;5095534;28;20488;-85
2022/07/24 05:27:28;;;;;;;0.10;0.10;;;16.00;99.90;;;;;;5109903;28;20032;-83
2022/07/24 05:29:54;;;;;;;0.47;0.32;;;16.00;99.90;;;;;;5122851;28;20040;-86
2022/07/24 05:32:21;;;;;;;0.65;0.45;;;16.00;99.90;;;;;;5129665;28;20067;-83
2022/07/24 05:34:48;;;;;;;0.38;0.35;;;16.10;99.90;;;;;;5126298;28;20039;-84
2022/07/24 05:37:14;;;;;;;0.20;0.20;;;16.20;99.90;;;;;;5124309;28;20054;-83
2022/07/24 05:39:41;;;;;;;0.30;0.30;;;16.30;99.90;;;;;;5110994;28;20465;-83
2022/07/24 05:42:08;;;;;;;0.45;0.30;;;16.30;99.90;;;;;;5110582;28;20052;-85
2022/07/24 05:44:35;;;;;;;0.63;0.40;;;16.40;99.90;;;;;;5112950;28;20046;-85
2022/07/24 05:47:01;;;;;;;0.75;0.40;;;16.50;99.90;;;;;;5144642;28;20042;-84
2022/07/24 05:49:28;;;;;;;0.63;0.43;;;16.50;99.90;;;;;;5093317;28;20040;-84
2022/07/24 05:51:55;;;;;;;0.32;0.28;;;16.50;99.90;;;;;;5095969;28;20089;-85
2022/07/24 05:54:22;;;;;;;0.45;0.40;;;16.60;99.90;;;;;;5095457;28;20043;-84
2022/07/24 05:56:48;;;;;;;0.43;0.30;;;16.50;99.90;;;;;;5112508;28;20122;-84
2022/07/24 05:59:15;;;;;;;0.30;0.30;;;16.40;99.90;;;;;;5114485;28;20914;-85
2022/07/24 06:01:42;;;;;;;0.38;0.30;;;16.50;99.90;;;;;;5116748;28;20092;-84
2022/07/24 06:04:08;;;;;;;0.57;0.28;;;16.50;99.90;;;;;;5112592;28;20502;-83
2022/07/24 06:06:35;;;;;;;0.20;0.20;;;16.60;99.90;;;;;;5125608;28;20028;-83
2022/07/24 06:09:03;;;;;;;0.30;0.20;;;16.60;99.90;;;;;;5112672;28;20492;-84
2022/07/24 06:11:30;;;;;;;0.17;0.15;;;16.70;99.90;;;;;;5175183;27;20036;-85
2022/07/24 06:13:56;;;;;;;0.43;0.30;;;16.80;99.90;;;;;;5141745;27;20039;-85
2022/07/24 06:16:23;;;;;;;0.63;0.30;;;17.00;99.90;;;;;;5132943;28;20050;-83
2022/07/24 06:18:50;;;;;;;0.60;0.43;;;17.20;99.90;;;;;;5133122;28;20057;-85
2022/07/24 06:21:16;;;;;;;0.40;0.30;;;17.30;99.90;;;;;;5131363;28;20470;-85
2022/07/24 06:23:43;;;;;;;0.30;0.30;;;17.50;99.90;;;;;;5112443;28;20493;-86
2022/07/24 06:26:10;;;;;;;0.43;0.28;;;17.60;99.90;;;;;;5119572;28;20047;-85
2022/07/24 06:28:36;;;;;;;0.60;0.30;;;17.70;99.90;;;;;;5134268;28;20042;-83
2022/07/24 06:31:03;;;;;;;0.63;0.50;;;17.90;99.90;;;;;;5108432;28;20024;-83
2022/07/24 06:33:30;;;;;;;1.65;0.68;;;18.00;99.90;;;;;;5147965;27;20055;-82
2022/07/24 06:35:57;;;;;;;0.20;0.20;;;18.10;99.90;;;;;;5128034;28;20040;-83
2022/07/24 06:38:23;;;;;;;0.30;0.25;;;18.10;99.90;;;;;;5119178;27;20035;-86
2022/07/24 06:40:50;;;;;;;0.30;0.30;;;18.20;99.90;;;;;;5137817;28;20047;-87
2022/07/24 06:43:17;;;;;;;1.15;0.60;;;18.20;99.90;;;;;;5111938;28;20131;-89
2022/07/24 06:45:44;;;;;;;1.15;0.55;;;18.30;99.90;;;;;;5095903;28;20072;-84
2022/07/24 06:48:10;;;;;;;0.40;0.40;;;18.40;99.90;;;;;;5145445;28;20062;-87
2022/07/24 06:50:37;;;;;;;0.85;0.60;;;18.50;99.90;;;;;;5132715;28;20036;-87
2022/07/24 06:53:04;;;;;;;0.52;0.45;;;18.60;99.90;;;;;;5149561;28;20047;-83
2022/07/24 06:55:30;;;;;;;0.60;0.50;;;18.80;99.90;;;;;;5115415;28;20043;-85
2022/07/24 06:57:57;;;;;;;0.50;0.50;;;18.90;99.90;;;;;;5132791;28;20122;-85
2022/07/24 07:00:24;;;;;;;0.50;0.45;;;19.00;99.90;;;;;;5131799;28;20075;-84
2022/07/24 07:02:51;;;;;;;1.25;0.80;;;19.20;99.90;;;;;;5149395;28;20130;-85
2022/07/24 07:05:18;;;;;;;0.98;0.60;;;19.30;99.90;;;;;;5166477;27;20035;-88
2022/07/24 07:07:45;;;;;;;0.35;0.35;;;19.40;99.90;;;;;;5149684;28;20043;-84
2022/07/24 07:10:12;;;;;;;1.10;0.70;;;19.50;99.90;;;;;;5148074;28;20036;-85
2022/07/24 07:12:39;;;;;;;0.82;0.65;;;19.70;99.90;;;;;;5148553;28;20104;-84
2022/07/24 07:15:06;;;;;;;1.30;0.70;;;19.70;99.90;;;;;;5132426;28;20078;-87
2022/07/24 07:17:33;;;;;;;1.48;0.68;;;19.60;99.90;;;;;;5114392;28;20057;-84
2022/07/24 07:19:59;;;;;;;0.98;0.60;;;19.60;99.90;;;;;;5139066;27;20032;-87
2022/07/24 07:22:26;;;;;;;0.82;0.50;;;19.70;99.90;;;;;;5120437;28;20431;-85
2022/07/24 07:24:53;;;;;;;0.88;0.63;;;19.70;99.90;;;;;;5124159;28;20503;-88
2022/07/24 07:27:20;;;;;;;0.63;0.50;;;19.80;99.90;;;;;;5124708;28;20032;-86
2022/07/24 07:29:46;;;;;;;0.93;0.65;;;19.90;99.90;;;;;;5098434;28;20114;-86
2022/07/24 07:32:13;;;;;;;1.02;0.45;;;20.00;99.90;;;;;;5097612;28;20031;-85
2022/07/24 07:34:40;;;;;;;1.17;0.70;;;20.10;99.90;;;;;;5148529;28;20035;-87
2022/07/24 07:37:06;;;;;;;1.08;0.75;;;20.20;99.90;;;;;;5137125;28;20115;-86
2022/07/24 07:39:33;;;;;;;0.60;0.50;;;20.20;99.90;;;;;;5133643;28;20616;-85
2022/07/24 07:42:00;;;;;;;1.75;0.88;;;20.20;99.90;;;;;;5130583;28;20035;-86
2022/07/24 07:44:27;;;;;;;1.38;0.70;;;20.20;99.90;;;;;;5129898;28;20042;-86
2022/07/24 07:46:53;;;;;;;0.88;0.60;;;20.30;99.90;;;;;;5096230;28;20042;-86
2022/07/24 07:49:20;;;;;;;0.93;0.63;;;20.40;99.90;;;;;;5139136;28;20044;-87
2022/07/24 07:51:47;;;;;;;0.80;0.55;;;20.50;99.90;;;;;;5114189;28;20561;-89
2022/07/24 07:54:14;;;;;;;1.05;0.70;;;20.50;99.90;;;;;;5119766;28;20508;-85
2022/07/24 07:56:41;;;;;;;1.27;0.77;;;20.70;99.90;;;;;;5097902;28;20043;-85
2022/07/24 07:59:08;;;;;;;1.80;1.10;;;20.70;99.90;;;;;;5130524;28;20555;-85
2022/07/24 08:01:35;;;;;;;1.30;0.88;;;20.90;99.90;;;;;;5130970;28;20083;-86
2022/07/24 08:04:02;;;;;;;2.42;0.98;;;21.00;99.90;;;;;;5118597;28;20040;-86
2022/07/24 08:06:29;;;;;;;1.58;0.88;;;21.10;99.90;;;;;;5135982;28;20455;-85
2022/07/24 08:08:56;;;;;;;1.40;0.98;;;21.20;99.90;;;;;;5113504;28;20081;-85
2022/07/24 08:11:23;;;;;;;1.50;1.00;;;21.40;99.90;;;;;;5134887;28;20409;-85
2022/07/24 08:13:49;;;;;;;2.58;1.08;;;21.50;99.90;;;;;;5142163;28;20055;-86
2022/07/24 08:16:16;;;;;;;1.60;1.02;;;21.80;99.90;;;;;;5112817;28;20047;-85
2022/07/24 08:18:43;;;;;;;1.25;0.80;;;22.00;99.90;;;;;;5146931;28;20126;-84
2022/07/24 08:21:10;;;;;;;2.17;1.23;;;22.10;99.90;;;;;;5116049;28;20054;-85
2022/07/24 08:23:36;;;;;;;1.08;0.70;;;22.30;99.90;;;;;;5134534;28;20153;-85
2022/07/24 08:26:03;;;;;;;1.88;1.00;;;22.30;99.90;;;;;;5112853;28;20043;-86
2022/07/24 08:28:30;;;;;;;1.73;1.00;;;22.30;99.90;;;;;;5094878;28;20122;-85
2022/07/24 08:30:56;;;;;;;1.48;0.98;;;22.20;99.90;;;;;;5083583;28;20131;-86
2022/07/24 08:33:23;;;;;;;1.95;1.00;;;22.20;99.90;;;;;;5160924;27;20047;-85
2022/07/24 08:35:50;;;;;;;1.13;0.77;;;22.40;99.90;;;;;;5095798;28;20043;-85
2022/07/24 08:38:16;;;;;;;9.82;1.10;;;22.60;99.90;;;;;;5112660;28;20790;-85
2022/07/24 08:40:45;;;;;;;1.77;1.10;;;22.70;99.90;;;;;;5116869;28;20044;-86
2022/07/24 08:43:11;;;;;;;3.55;0.90;;;22.90;99.90;;;;;;5109902;28;20497;-87
2022/07/24 08:45:41;;;;;;;1.52;0.93;;;23.10;99.90;;;;;;5121010;28;20046;-85
2022/07/24 08:48:10;;;;;;;1.40;0.90;;;23.10;99.90;;;;;;5129620;28;20488;-86
2022/07/24 08:50:41;;;;;;;1.13;0.70;;;23.00;99.90;;;;;;5128029;28;20126;-85
2022/07/24 08:53:08;;;;;;;1.25;0.82;;;23.00;99.90;;;;;;5132819;28;20094;-85
2022/07/24 08:55:34;;;;;;;1.10;0.70;;;23.10;99.90;;;;;;5146684;28;20045;-86
2022/07/24 08:58:02;;;;;;;0.80;0.63;;;23.30;99.90;;;;;;5129689;28;20035;-85
2022/07/24 09:00:30;;;;;;;0.52;0.43;;;23.30;99.90;;;;;;5126696;28;20044;-87
2022/07/24 09:02:57;;;;;;;0.85;0.50;;;23.40;99.90;;;;;;5145356;28;20040;-85
2022/07/24 09:05:24;;;;;;;0.88;0.70;;;23.50;99.90;;;;;;5116414;28;20039;-85
2022/07/24 09:08:08;;;;;;;0.93;0.60;;;23.60;99.90;;;;;;5123750;28;20093;-86
2022/07/24 09:10:35;;;;;;;0.63;0.50;;;23.70;99.90;;;;;;5129979;28;20071;-87
2022/07/24 09:13:14;;;;;;;0.90;0.60;;;23.80;99.90;;;;;;5163453;28;20035;-85
2022/07/24 09:15:48;;;;;;;0.93;0.60;;;23.80;99.90;;;;;;5130198;28;20116;-86
2022/07/24 09:18:30;;;;;;;0.45;0.32;;;23.80;99.90;;;;;;5146059;28;20103;-86
2022/07/24 09:20:58;;;;;;;0.40;0.40;;;23.70;99.90;;;;;;5129983;28;20067;-89
2022/07/24 09:23:25;;;;;;;0.65;0.40;;;23.60;99.90;;;;;;5129058;28;20047;-87
2022/07/24 09:25:54;;;;;;;0.32;0.30;;;23.60;99.90;;;;;;5129256;28;20108;-86
2022/07/24 09:28:21;;;;;;;0.60;0.50;;;23.60;99.90;;;;;;5112974;28;20411;-87
2022/07/24 09:30:48;;;;;;;0.93;0.52;;;23.60;99.90;;;;;;5110407;28;20036;-87
2022/07/24 09:33:17;;;;;;;0.77;0.50;;;23.70;99.90;;;;;;5113777;28;20058;-87
2022/07/24 09:35:47;;;;;;;0.47;0.47;;;23.80;99.90;;;;;;5133290;28;20051;-87
2022/07/24 09:38:22;;;;;;;0.47;0.40;;;24.00;99.90;;;;;;5134133;28;20130;-85
2022/07/24 09:40:54;;;;;;;0.60;0.50;;;24.20;99.90;;;;;;5150416;28;20152;-86
2022/07/24 09:43:30;;;;;;;0.43;0.30;;;24.50;99.90;;;;;;5133138;28;20067;-85
2022/07/24 09:45:59;;;;;;;0.80;0.57;;;24.60;99.90;;;;;;5133682;28;20552;-86
2022/07/24 09:48:34;;;;;;;0.40;0.30;;;24.70;99.90;;;;;;5133748;28;20039;-86
2022/07/24 09:51:02;;;;;;;0.50;0.40;;;24.80;99.90;;;;;;5132502;28;20122;-88
2022/07/24 09:53:31;;;;;;;0.65;0.50;;;24.70;99.90;;;;;;5149358;28;20070;-86
2022/07/24 09:55:58;;;;;;;0.40;0.38;;;24.50;99.90;;;;;;5133474;28;20085;-83
2022/07/24 09:58:25;;;;;;;0.40;0.40;;;24.50;99.90;;;;;;5149837;28;20082;-84
2022/07/24 10:00:57;;;;;;;0.57;0.32;;;24.40;99.90;;;;;;5115541;28;20093;-83
2022/07/24 10:03:33;;;;;;;0.77;0.50;;;24.30;99.90;;;;;;5147522;27;20035;-87
2022/07/24 10:06:05;;;;;;;0.40;0.40;;;24.50;99.90;;;;;;5132722;28;20055;-87
2022/07/24 10:08:36;;;;;;;0.30;0.30;;;24.70;99.90;;;;;;5112231;28;20036;-87
2022/07/24 10:11:03;;;;;;;0.52;0.40;;;24.90;99.90;;;;;;5163803;27;20493;-90
2022/07/24 10:13:30;;;;;;;0.38;0.38;;;25.00;99.90;;;;;;5132395;28;20047;-88
2022/07/24 10:16:00;;;;;;;0.43;0.38;;;25.10;99.90;;;;;;5132951;28;20500;-88
2022/07/24 10:18:54;;;;;;;0.43;0.40;;;25.30;99.90;;;;;;5132510;28;20039;-86
2022/07/24 10:21:30;;;;;;;0.55;0.43;;;25.30;99.90;;;;;;5129799;28;20043;-89
2022/07/24 10:24:27;;;;;;;0.70;0.50;;;25.30;99.90;;;;;;5149796;28;20034;-88
2022/07/24 10:27:04;;;;;;;0.82;0.40;;;25.40;99.90;;;;;;5112992;28;20036;-88
2022/07/24 10:29:34;;;;;;;0.43;0.35;;;25.50;99.90;;;;;;5131690;28;20032;-88
2022/07/24 10:32:01;;;;;;;0.80;0.50;;;25.60;99.90;;;;;;5132925;28;20122;-86
2022/07/24 10:35:02;;;;;;;1.00;0.68;;;25.80;99.90;;;;;;5132123;28;20035;-86
2022/07/24 10:37:59;;;;;;;0.43;0.38;;;25.80;99.90;;;;;;5150373;27;20710;-85
2022/07/24 10:40:44;;;;;;;0.93;0.40;;;25.90;99.90;;;;;;5124318;27;20071;-86
2022/07/24 10:43:14;;;;;;;0.43;0.40;;;25.80;99.90;;;;;;5166906;27;20806;-85
2022/07/24 10:45:45;;;;;;;0.35;0.35;;;25.80;99.90;;;;;;5131653;28;20484;-86
2022/07/24 10:48:24;;;;;;;0.57;0.50;;;26.00;99.90;;;;;;5127977;28;20142;-88
2022/07/24 10:50:57;;;;;;;0.30;0.30;;;26.30;99.90;;;;;;5132245;28;20035;-88
2022/07/24 10:53:37;;;;;;;0.55;0.40;;;26.30;99.70;;;;;;5166591;27;20110;-88
2022/07/24 10:56:29;;;;;;;0.35;0.35;;;26.40;99.90;;;;;;5149571;28;20108;-89
2022/07/24 10:58:56;;;;;;;0.68;0.50;;;26.40;99.90;;;;;;5148546;27;20542;-86
2022/07/24 11:01:33;;;;;;;0.30;0.30;;;26.70;99.90;;;;;;5112284;28;20044;-85
2022/07/24 11:04:03;;;;;;;0.50;0.45;;;26.60;99.90;;;;;;5128650;28;20035;-88
2022/07/24 11:06:39;;;;;;;0.98;0.50;;;26.70;99.80;;;;;;5122998;28;20097;-88
2022/07/24 11:09:05;;;;;;;0.25;0.25;;;26.70;99.80;;;;;;5111848;28;20485;-86
2022/07/24 11:11:32;;;;;;;0.43;0.40;;;26.70;98.90;;;;;;5138585;28;20042;-87
2022/07/24 11:14:01;;;;;;;0.40;0.40;;;26.80;98.30;;;;;;5132066;28;20043;-87
2022/07/24 11:16:30;;;;;;;0.40;0.40;;;26.80;99.90;;;;;;5099209;28;20044;-89
2022/07/24 11:18:59;;;;;;;0.52;0.40;;;26.90;98.50;;;;;;5131778;28;20043;-86
2022/07/24 11:21:32;;;;;;;0.40;0.40;;;26.90;99.20;;;;;;5132910;27;20085;-88
2022/07/24 11:24:16;;;;;;;0.63;0.43;;;26.90;99.50;;;;;;5134297;28;20804;-88
2022/07/24 11:26:47;;;;;;;0.55;0.40;;;26.70;98.60;;;;;;5115365;27;20044;-85
2022/07/24 11:29:23;;;;;;;0.55;0.40;;;26.50;99.70;;;;;;5165861;27;20084;-86
2022/07/24 11:31:54;;;;;;;0.43;0.35;;;26.60;99.80;;;;;;5159305;27;20038;-85
2022/07/24 11:34:21;;;;;;;0.90;0.50;;;26.60;99.60;;;;;;5149140;28;20043;-87
2022/07/24 11:36:51;;;;;;;0.40;0.40;;;26.70;99.90;;;;;;5131852;28;20492;-88
2022/07/24 11:39:20;;;;;;;0.35;0.30;;;26.80;98.70;;;;;;5133017;27;20084;-88
2022/07/24 11:41:48;;;;;;;0.47;0.47;;;26.80;98.90;;;;;;5133821;28;20055;-85
2022/07/24 11:44:22;;;;;;;0.80;0.50;;;26.60;98.80;;;;;;5131629;28;20039;-85
2022/07/24 11:46:49;;;;;;;0.60;0.35;;;26.40;98.10;;;;;;5146200;28;20081;-88
2022/07/24 11:49:16;;;;;;;0.47;0.40;;;26.30;98.70;;;;;;5131325;28;20075;-88
2022/07/24 11:51:47;;;;;;;0.43;0.32;;;26.20;99.40;;;;;;5112147;28;20502;-85
2022/07/24 11:54:19;;;;;;;0.40;0.32;;;26.40;99.90;;;;;;5165086;27;20040;-85
2022/07/24 11:56:50;;;;;;;0.47;0.40;;;26.40;98.80;;;;;;5130898;28;20043;-88
2022/07/24 11:59:32;;;;;;;0.38;0.38;;;26.50;99.00;;;;;;5131240;28;20099;-88
2022/07/24 12:02:07;;;;;;;0.65;0.50;;;26.70;99.90;;;;;;5147412;28;20138;-84
2022/07/24 12:04:35;;;;;;;0.52;0.50;;;26.80;99.20;;;;;;5130051;28;20655;-84
2022/07/24 12:07:06;;;;;;;0.38;0.38;;;27.10;99.70;;;;;;5163364;27;20043;-87
2022/07/24 12:09:43;;;;;;;0.50;0.45;;;27.30;99.70;;;;;;5123165;28;20466;-85
2022/07/24 12:12:29;;;;;;;0.47;0.40;;;27.30;97.10;;;;;;5150460;27;20058;-88
2022/07/24 12:15:07;;;;;;;0.43;0.30;;;27.30;97.30;;;;;;5113721;28;20111;-85
2022/07/24 12:17:51;;;;;;;0.40;0.40;;;27.20;96.70;;;;;;5130882;28;20035;-87
2022/07/24 12:20:23;;;;;;;0.70;0.43;;;27.00;97.30;;;;;;5130854;28;20123;-85
2022/07/24 12:22:50;;;;;;;0.47;0.20;;;26.90;96.70;;;;;;5113807;28;20039;-86
2022/07/24 12:25:17;;;;;;;0.40;0.38;;;26.90;97.50;;;;;;5130407;28;20420;-87
2022/07/24 12:27:47;;;;;;;0.50;0.50;;;27.10;98.20;;;;;;5113387;28;20036;-86
2022/07/24 12:30:20;;;;;;;0.57;0.50;;;27.20;98.00;;;;;;5113990;28;20104;-86
2022/07/24 12:32:53;;;;;;;0.63;0.40;;;27.40;98.70;;;;;;5130059;28;20043;-86
2022/07/24 12:35:20;;;;;;;1.33;0.65;;;27.50;97.20;;;;;;5130365;28;20642;-88
2022/07/24 12:37:47;;;;;;;0.60;0.50;;;27.60;97.30;;;;;;5113886;28;20039;-84
2022/07/24 12:40:35;;;;;;;0.70;0.43;;;27.60;97.70;;;;;;5130503;28;20062;-87
2022/07/24 12:43:10;;;;;;;0.60;0.50;;;27.80;98.40;;;;;;5129849;28;20096;-85
2022/07/24 12:45:37;;;;;;;0.30;0.30;;;28.00;98.40;;;;;;5113851;28;20039;-88
2022/07/24 12:48:06;;;;;;;0.77;0.50;;;28.00;96.60;;;;;;5114000;28;20035;-85
2022/07/24 12:50:33;;;;;;;0.50;0.40;;;28.00;96.00;;;;;;5130604;28;20036;-88
2022/07/24 12:53:07;;;;;;;0.50;0.50;;;28.00;95.00;;;;;;5130234;28;20043;-85
2022/07/24 12:55:35;;;;;;;0.80;0.60;;;28.00;96.70;;;;;;5130776;28;20118;-85